PHX weather

Phoenix Sky Harbor International Airport
Phoenix, Arizona, United States

Public forecast

Using degrees Fahrenheit for public forecast. Weather courtesy of forecast.io.

Current aviation weather report (METAR) for Phoenix Sky Harbor International Airport

Retrieved 2020/04/01 09:51 UTC (27 minutes ago):

KPHX 010951Z 11003KT 10SM BKN180 BKN200 18/08 A2980 RMK AO2 SLP077 T01780083

Aviation forecast (TAF) for Phoenix Sky Harbor International Airport

Retrieved 2020/04/01 06:22 UTC (4 hours ago):

TAF KPHX 010520Z 0106/0212 23004KT P6SM BKN160 FM010700 10005KT P6SM BKN150 TEMPO 0107/0111 VRB04KT FM011900 24009KT P6SM SCT160 BKN200 FM020700 11012KT P6SM SKC